Time;durP1;ratioP1;P1;durP2;ratioP2;P2;SDS_P1;SDS_P2;PMS_P1;PMS_P2;Temp;Humidity;BMP_temperature;BMP_pressure;BME280_temperature;BME280_humidity;BME280_pressure;Samples;Min_cycle;Max_cycle;Signal;HPM_P1;HPM_P2
2021/06/16 00:01:42;;;;;;;3.70;3.00;;;;;;;23.04;41.63;96638.63;5049877;28;20487;-63
2021/06/16 00:04:07;;;;;;;3.60;2.73;;;;;;;23.16;41.50;96636.66;5049021;28;20572;-64
2021/06/16 00:06:33;;;;;;;3.20;2.90;;;;;;;23.31;40.84;96643.28;5050382;28;20210;-63
2021/06/16 00:08:59;;;;;;;5.60;2.63;;;;;;;23.41;40.41;96631.91;5043449;28;20180;-63
2021/06/16 00:11:24;;;;;;;5.20;2.97;;;;;;;23.52;40.28;96633.63;5033615;28;20421;-63
2021/06/16 00:13:50;;;;;;;3.30;3.00;;;;;;;23.63;40.14;96634.56;5049683;28;20199;-64
2021/06/16 00:16:17;;;;;;;5.70;3.30;;;;;;;23.62;40.05;96624.91;5052176;28;20218;-63
2021/06/16 00:18:43;;;;;;;6.80;3.20;;;;;;;23.92;39.67;96637.81;5053582;28;20270;-64
2021/06/16 00:21:12;;;;;;;4.37;3.07;;;;;;;24.01;39.46;96640.06;5049133;28;20425;-64
2021/06/16 00:23:37;;;;;;;4.73;2.67;;;;;;;24.02;40.09;96630.97;5047171;28;20183;-64
2021/06/16 00:26:03;;;;;;;4.50;2.67;;;;;;;23.93;39.98;96625.25;5053518;28;20872;-63
2021/06/16 00:28:29;;;;;;;3.20;2.70;;;;;;;23.38;40.99;96627.84;5053337;28;20187;-64
2021/06/16 00:30:54;;;;;;;2.63;2.30;;;;;;;23.27;41.01;96620.78;5053441;28;20183;-64
2021/06/16 00:33:20;;;;;;;3.90;2.87;;;;;;;23.41;41.33;96623.88;5053620;28;20199;-63
2021/06/16 00:35:45;;;;;;;4.80;3.23;;;;;;;23.22;41.45;96623.38;5054278;28;20268;-64
2021/06/16 00:38:11;;;;;;;6.17;3.50;;;;;;;23.21;41.45;96616.41;5052604;28;20812;-63
2021/06/16 00:40:37;;;;;;;9.00;2.80;;;;;;;23.68;40.71;96620.44;5040233;28;20301;-64
2021/06/16 00:43:02;;;;;;;4.53;2.80;;;;;;;23.27;41.64;96623.44;5052498;28;20645;-63
2021/06/16 00:45:29;;;;;;;5.67;2.90;;;;;;;23.56;40.81;96623.25;5053982;28;20237;-63
2021/06/16 00:47:55;;;;;;;3.80;3.03;;;;;;;23.71;40.90;96625.28;5053694;28;20197;-65
2021/06/16 00:50:26;;;;;;;2.90;2.50;;;;;;;23.37;41.46;96620.91;5051518;28;21077;-64
2021/06/16 00:52:52;;;;;;;3.30;2.77;;;;;;;23.66;40.98;96630.56;5053279;28;20444;-63
2021/06/16 00:55:17;;;;;;;5.93;2.73;;;;;;;23.85;40.64;96629.19;5051636;28;20504;-64
2021/06/16 00:57:43;;;;;;;3.27;2.70;;;;;;;23.81;40.59;96629.94;5051126;28;20720;-64
2021/06/16 01:00:12;;;;;;;5.43;3.20;;;;;;;23.78;40.73;96626.72;5043878;28;20179;-64
2021/06/16 01:02:47;;;;;;;2.93;2.63;;;;;;;23.86;41.19;96621.97;5053150;28;20183;-63
2021/06/16 01:05:15;;;;;;;3.50;2.87;;;;;;;24.14;40.40;96620.91;5051399;28;20449;-63
2021/06/16 01:07:42;;;;;;;3.00;2.80;;;;;;;24.34;40.51;96628.31;5052551;28;20483;-64
2021/06/16 01:10:12;;;;;;;3.20;2.83;;;;;;;24.63;39.97;96624.53;5037742;28;20769;-64
2021/06/16 01:12:37;;;;;;;3.00;2.80;;;;;;;24.74;39.43;96623.56;5043295;28;20415;-64
2021/06/16 01:15:06;;;;;;;4.33;2.63;;;;;;;24.62;39.14;96625.59;5049038;28;20421;-64
2021/06/16 01:17:34;;;;;;;5.40;2.93;;;;;;;24.58;39.26;96616.47;5051228;28;20615;-64
2021/06/16 01:20:00;;;;;;;3.30;3.00;;;;;;;24.54;39.46;96618.84;5051319;28;20418;-63
2021/06/16 01:22:31;;;;;;;4.97;3.00;;;;;;;24.45;39.67;96617.69;5038892;28;20418;-64
2021/06/16 01:25:03;;;;;;;3.43;2.97;;;;;;;24.64;39.71;96621.59;5048565;28;20245;-64
2021/06/16 01:27:28;;;;;;;3.20;2.97;;;;;;;24.79;39.72;96625.47;5051794;28;20476;-64
2021/06/16 01:29:56;;;;;;;10.03;4.03;;;;;;;24.75;39.71;96621.69;5051652;28;20430;-63
2021/06/16 01:32:22;;;;;;;10.13;3.40;;;;;;;24.65;40.15;96625.88;5050455;28;20518;-63
2021/06/16 01:34:48;;;;;;;3.87;3.17;;;;;;;24.63;40.23;96624.53;5050921;28;20536;-64
2021/06/16 01:37:14;;;;;;;3.80;3.30;;;;;;;24.61;40.80;96618.63;5050442;28;20535;-64
2021/06/16 01:39:41;;;;;;;3.73;3.33;;;;;;;24.63;40.61;96625.34;5038580;28;20195;-63
2021/06/16 01:42:10;;;;;;;3.87;3.47;;;;;;;24.86;39.83;96612.66;5050506;28;20421;-63
2021/06/16 01:44:36;;;;;;;5.17;3.60;;;;;;;25.01;39.71;96617.31;5051838;28;20931;-64
2021/06/16 01:47:03;;;;;;;3.93;3.37;;;;;;;25.07;40.01;96608.22;5042094;28;20445;-63
2021/06/16 01:49:29;;;;;;;4.67;3.03;;;;;;;25.24;39.75;96617.97;5051124;28;20232;-64
2021/06/16 01:51:55;;;;;;;5.17;3.30;;;;;;;25.39;39.12;96614.53;5050691;28;20425;-64
2021/06/16 01:54:24;;;;;;;4.10;3.30;;;;;;;25.20;39.58;96612.31;5051686;28;20857;-63
2021/06/16 01:56:49;;;;;;;5.20;3.30;;;;;;;25.32;39.76;96614.75;5046112;28;20594;-63
2021/06/16 01:59:16;;;;;;;7.63;3.70;;;;;;;25.40;39.50;96610.78;5049954;28;20932;-64
2021/06/16 02:01:42;;;;;;;3.87;3.50;;;;;;;25.41;39.74;96610.53;5051839;28;20210;-63
2021/06/16 02:04:08;;;;;;;3.80;3.40;;;;;;;25.45;39.39;96608.94;5050736;28;20414;-64
2021/06/16 02:06:39;;;;;;;6.80;3.50;;;;;;;25.41;39.60;96609.75;5051491;28;20218;-64
2021/06/16 02:09:06;;;;;;;5.83;3.70;;;;;;;25.25;39.99;96608.84;5036102;28;20583;-65
2021/06/16 02:11:33;;;;;;;5.10;3.40;;;;;;;25.03;40.85;96595.59;5050710;28;20472;-63
2021/06/16 02:14:01;;;;;;;3.87;3.50;;;;;;;24.99;41.10;96596.13;5049882;28;20465;-63
2021/06/16 02:16:36;;;;;;;9.00;3.50;;;;;;;24.95;40.95;96592.31;5043315;28;20500;-63
2021/06/16 02:19:19;;;;;;;4.43;3.80;;;;;;;24.79;41.64;96590.66;5050508;28;20433;-63
2021/06/16 02:21:45;;;;;;;4.13;3.80;;;;;;;24.66;41.64;96590.00;5048229;28;20943;-64
2021/06/16 02:24:12;;;;;;;4.97;3.40;;;;;;;24.62;41.77;96593.47;5044586;28;20504;-63
2021/06/16 02:26:38;;;;;;;6.20;3.87;;;;;;;24.47;41.24;96594.13;5050986;28;20203;-63
2021/06/16 02:29:08;;;;;;;3.80;3.50;;;;;;;23.82;43.06;96589.56;5051598;28;20417;-63
2021/06/16 02:31:33;;;;;;;6.20;3.43;;;;;;;23.89;43.42;96584.81;5052420;28;20278;-63
2021/06/16 02:33:59;;;;;;;7.63;3.67;;;;;;;23.89;42.84;96582.13;5052951;28;20592;-63
2021/06/16 02:36:26;;;;;;;4.50;3.40;;;;;;;23.82;43.00;96584.22;5033802;28;20199;-62
2021/06/16 02:38:57;;;;;;;7.83;3.33;;;;;;;23.99;43.18;96577.97;5038760;28;20188;-63
2021/06/16 02:41:23;;;;;;;3.63;3.33;;;;;;;24.33;42.37;96586.53;5049688;28;20445;-62
2021/06/16 02:43:49;;;;;;;4.10;3.60;;;;;;;24.41;42.02;96590.63;5050241;28;20421;-63
2021/06/16 02:46:16;;;;;;;8.30;3.50;;;;;;;24.35;42.26;96583.63;5050624;28;20438;-63
2021/06/16 02:48:45;;;;;;;4.03;3.63;;;;;;;24.43;42.26;96580.47;5050227;28;20429;-63
2021/06/16 02:51:12;;;;;;;5.70;3.30;;;;;;;24.52;41.64;96578.13;5048287;28;20421;-63
2021/06/16 02:53:38;;;;;;;4.67;3.87;;;;;;;24.68;41.94;96577.16;5034889;28;20476;-63
2021/06/16 02:56:04;;;;;;;3.70;2.83;;;;;;;24.83;41.04;96581.00;5041869;28;20446;-63
2021/06/16 02:58:33;;;;;;;7.13;4.03;;;;;;;24.90;40.98;96576.25;5049308;28;20452;-63
2021/06/16 03:01:00;;;;;;;5.50;4.03;;;;;;;24.99;40.92;96580.03;5049235;28;20186;-63
2021/06/16 03:03:26;;;;;;;11.03;3.77;;;;;;;24.87;41.12;96579.44;5049285;28;20417;-63
2021/06/16 03:05:54;;;;;;;4.33;3.57;;;;;;;24.71;41.60;96575.03;5049665;28;20928;-63
2021/06/16 03:08:20;;;;;;;4.73;4.23;;;;;;;24.76;41.34;96572.41;5041609;28;20483;-63
2021/06/16 03:10:46;;;;;;;4.37;3.67;;;;;;;24.67;41.80;96577.41;5055165;28;20421;-64
2021/06/16 03:13:12;;;;;;;4.40;4.00;;;;;;;24.65;42.17;96572.31;5047883;28;20896;-63
2021/06/16 03:15:40;;;;;;;9.13;3.80;;;;;;;24.72;41.51;96579.34;5050450;28;20207;-63
2021/06/16 03:18:07;;;;;;;4.53;3.83;;;;;;;24.78;41.57;96572.97;5045004;28;20822;-64
2021/06/16 03:20:33;;;;;;;6.00;3.70;;;;;;;24.89;41.12;96574.63;5049218;28;20560;-63
2021/06/16 03:22:59;;;;;;;4.30;3.87;;;;;;;24.77;41.58;96574.81;5040793;28;20422;-64
2021/06/16 03:25:25;;;;;;;4.07;3.20;;;;;;;24.67;41.85;96583.59;5032988;28;20779;-63
2021/06/16 03:27:52;;;;;;;4.77;3.97;;;;;;;24.55;42.41;96588.31;5020797;28;20434;-64
2021/06/16 03:30:20;;;;;;;7.17;3.73;;;;;;;24.35;42.70;96584.41;5047903;28;20202;-63
2021/06/16 03:32:47;;;;;;;5.30;4.17;;;;;;;24.18;42.91;96581.09;5049331;28;20417;-63
2021/06/16 03:35:12;;;;;;;5.63;4.27;;;;;;;24.03;43.81;96579.91;5048033;28;20531;-64
2021/06/16 03:37:38;;;;;;;7.20;4.37;;;;;;;23.81;44.30;96585.28;5048483;28;20960;-64
2021/06/16 03:40:06;;;;;;;8.90;4.90;;;;;;;23.64;44.73;96582.69;5050324;28;20199;-64
2021/06/16 03:42:33;;;;;;;7.53;4.60;;;;;;;23.50;44.97;96578.78;5032243;28;20183;-64
2021/06/16 03:45:05;;;;;;;4.03;3.63;;;;;;;23.75;44.27;96583.63;5050541;28;20512;-64
2021/06/16 03:47:31;;;;;;;10.53;4.10;;;;;;;24.06;43.64;96587.41;5035142;28;20445;-64
2021/06/16 03:49:57;;;;;;;4.50;4.03;;;;;;;24.23;43.36;96579.25;5049266;28;20434;-63
2021/06/16 03:52:23;;;;;;;5.60;3.90;;;;;;;24.58;42.08;96565.56;5053807;28;20424;-64
2021/06/16 03:54:49;;;;;;;9.40;5.30;;;;;;;24.56;42.82;96576.56;5041660;28;20446;-64
2021/06/16 03:57:19;;;;;;;4.83;3.90;;;;;;;24.72;42.18;96579.34;5051953;28;21030;-64
2021/06/16 03:59:44;;;;;;;6.40;4.13;;;;;;;25.02;41.62;96577.91;5044932;28;20425;-64
2021/06/16 04:02:10;;;;;;;15.70;5.93;;;;;;;25.09;41.13;96575.78;5053229;28;20904;-63
2021/06/16 04:04:36;;;;;;;5.93;4.30;;;;;;;25.09;41.25;96581.13;5053401;28;20190;-64
2021/06/16 04:07:02;;;;;;;5.80;4.23;;;;;;;25.08;41.30;96577.66;5052479;28;20256;-63
2021/06/16 04:09:28;;;;;;;7.20;4.47;;;;;;;25.12;41.24;96578.78;5053544;28;20763;-63
2021/06/16 04:11:53;;;;;;;6.30;4.10;;;;;;;25.19;41.27;96566.97;5051674;28;20421;-63
2021/06/16 04:14:22;;;;;;;6.87;4.80;;;;;;;25.24;40.92;96569.69;5053304;28;20479;-63
2021/06/16 04:16:48;;;;;;;6.00;4.23;;;;;;;25.32;40.88;96568.38;5052268;28;20203;-63
2021/06/16 04:19:13;;;;;;;5.20;4.30;;;;;;;25.25;40.74;96569.41;5052301;28;20579;-63
2021/06/16 04:21:40;;;;;;;7.63;4.70;;;;;;;25.14;41.44;96571.25;5044893;28;20183;-63
2021/06/16 04:24:05;;;;;;;6.20;4.97;;;;;;;25.02;41.44;96572.53;5047621;28;20245;-63
2021/06/16 04:26:31;;;;;;;6.50;4.33;;;;;;;24.46;43.36;96576.47;5052273;28;20461;-62
2021/06/16 04:28:56;;;;;;;6.00;3.90;;;;;;;24.44;43.79;96581.28;5041698;28;20213;-64
2021/06/16 04:31:22;;;;;;;6.23;4.30;;;;;;;24.41;43.65;96585.25;5053268;28;20605;-62
2021/06/16 04:33:48;;;;;;;10.80;4.53;;;;;;;24.29;44.18;96576.59;5054235;28;20229;-61
2021/06/16 04:36:13;;;;;;;7.30;3.80;;;;;;;24.43;44.04;96577.00;5053247;28;20207;-61
2021/06/16 04:38:39;;;;;;;8.00;4.23;;;;;;;24.64;43.45;96567.19;5053403;28;20182;-64
2021/06/16 04:41:04;;;;;;;4.90;4.50;;;;;;;24.75;42.97;96565.44;5050147;28;20207;-63
2021/06/16 04:43:30;;;;;;;6.40;4.80;;;;;;;24.53;43.84;96571.72;5052659;28;20184;-64
2021/06/16 04:45:56;;;;;;;4.40;4.00;;;;;;;24.62;43.38;96564.00;5033882;28;20214;-63
2021/06/16 04:48:21;;;;;;;9.70;4.20;;;;;;;24.72;43.67;96565.94;5043032;28;20426;-64
2021/06/16 04:50:47;;;;;;;8.33;4.80;;;;;;;24.76;42.92;96565.16;5052820;28;20191;-63
2021/06/16 04:53:13;;;;;;;9.37;4.20;;;;;;;24.98;43.04;96561.53;5053142;28;20206;-63
2021/06/16 04:55:38;;;;;;;11.40;4.10;;;;;;;25.19;42.87;96565.13;5053399;28;20674;-63
2021/06/16 04:58:04;;;;;;;12.00;3.97;;;;;;;25.16;42.67;96562.97;5043515;28;20304;-63
2021/06/16 05:00:29;;;;;;;14.40;4.60;;;;;;;25.33;42.25;96567.31;5047964;28;20198;-62
2021/06/16 05:02:59;;;;;;;13.40;4.00;;;;;;;25.44;42.05;96571.69;5051789;28;20194;-63
2021/06/16 05:05:28;;;;;;;9.67;4.30;;;;;;;25.57;41.53;96563.13;5036449;28;20194;-64
2021/06/16 05:07:54;;;;;;;5.37;4.17;;;;;;;25.50;40.45;96561.75;5050905;28;20437;-64
2021/06/16 05:10:20;;;;;;;5.70;4.53;;;;;;;25.34;40.68;96564.38;5051083;28;20422;-65
2021/06/16 05:12:46;;;;;;;8.80;4.27;;;;;;;25.12;40.69;96556.50;5052362;28;20515;-64
2021/06/16 05:15:12;;;;;;;9.20;3.80;;;;;;;25.10;41.70;96555.94;5052272;28;20187;-65
2021/06/16 05:17:39;;;;;;;5.50;3.47;;;;;;;25.27;39.76;96558.44;5051772;28;20760;-65
2021/06/16 05:20:09;;;;;;;4.10;3.27;;;;;;;25.26;39.08;96556.84;5052250;28;20434;-64
2021/06/16 05:22:35;;;;;;;5.07;3.13;;;;;;;25.32;39.72;96552.31;5047517;28;20947;-65
2021/06/16 05:25:02;;;;;;;6.67;4.03;;;;;;;25.42;40.02;96541.63;5052017;28;20418;-65
2021/06/16 05:27:28;;;;;;;7.83;3.70;;;;;;;25.60;39.83;96551.06;5043097;28;20529;-65
2021/06/16 05:29:54;;;;;;;4.53;2.90;;;;;;;25.86;39.26;96549.19;5044214;28;20440;-64
2021/06/16 05:32:20;;;;;;;3.47;3.17;;;;;;;25.95;39.45;96556.75;5052678;28;20264;-64
2021/06/16 05:34:45;;;;;;;6.30;3.20;;;;;;;25.88;38.97;96552.44;5052146;28;20207;-64
2021/06/16 05:37:11;;;;;;;3.33;2.97;;;;;;;26.05;38.33;96549.50;5042389;28;20495;-64
2021/06/16 05:39:37;;;;;;;3.93;3.40;;;;;;;26.05;38.09;96548.69;5052344;28;20194;-63
2021/06/16 05:42:03;;;;;;;3.40;2.97;;;;;;;26.19;38.30;96551.66;5043760;28;20192;-66
2021/06/16 05:44:28;;;;;;;12.57;3.20;;;;;;;26.32;38.23;96553.81;5051493;28;20824;-64
2021/06/16 05:46:54;;;;;;;4.17;3.40;;;;;;;26.47;38.47;96549.50;5052497;28;20222;-65
2021/06/16 05:49:20;;;;;;;6.03;3.10;;;;;;;26.47;37.15;96558.34;5052503;28;20268;-69
2021/06/16 05:51:45;;;;;;;3.87;3.00;;;;;;;26.56;36.90;96558.59;5050151;28;20183;-70
2021/06/16 05:54:11;;;;;;;3.80;2.83;;;;;;;26.48;37.16;96556.47;5048811;28;20294;-71
2021/06/16 05:56:37;;;;;;;5.10;3.47;;;;;;;26.51;36.79;96556.75;5048435;28;20855;-68
2021/06/16 05:59:03;;;;;;;9.10;2.73;;;;;;;26.58;36.62;96552.97;5043589;28;20195;-69
2021/06/16 06:01:29;;;;;;;4.07;3.20;;;;;;;26.73;36.44;96558.31;5052097;28;20429;-70
2021/06/16 06:03:54;;;;;;;6.80;3.10;;;;;;;26.73;35.93;96552.13;5050278;28;20193;-68
2021/06/16 06:06:20;;;;;;;6.87;3.43;;;;;;;26.74;35.54;96546.47;5051627;28;20441;-69
2021/06/16 06:08:45;;;;;;;5.63;3.13;;;;;;;26.72;35.48;96547.84;5043403;28;20182;-71
2021/06/16 06:11:11;;;;;;;7.70;2.50;;;;;;;26.86;35.44;96556.16;5051689;28;20191;-69
2021/06/16 06:13:37;;;;;;;5.37;2.97;;;;;;;26.75;35.99;96553.47;5050349;28;20210;-69
2021/06/16 06:16:02;;;;;;;4.20;2.80;;;;;;;26.53;36.21;96554.59;5050358;28;20650;-69
2021/06/16 06:18:28;;;;;;;6.90;2.97;;;;;;;26.81;35.90;96547.03;5051910;28;20672;-68
2021/06/16 06:20:53;;;;;;;5.93;2.90;;;;;;;26.74;35.25;96551.84;5048813;28;20232;-69
2021/06/16 06:23:19;;;;;;;3.10;2.80;;;;;;;26.82;35.84;96558.59;5050392;28;20183;-70
2021/06/16 06:25:45;;;;;;;5.33;3.17;;;;;;;26.88;35.69;96554.00;5051284;28;20199;-70
2021/06/16 06:28:10;;;;;;;7.40;2.77;;;;;;;27.08;35.33;96558.50;5051370;28;20187;-69
2021/06/16 06:30:37;;;;;;;6.00;2.60;;;;;;;27.20;35.67;96555.50;5051235;28;20199;-67
2021/06/16 06:33:03;;;;;;;3.87;2.70;;;;;;;27.47;34.82;96548.97;5050330;28;20187;-70
2021/06/16 06:35:29;;;;;;;3.20;2.90;;;;;;;27.69;34.05;96568.19;5048533;28;20436;-69
2021/06/16 06:37:55;;;;;;;4.80;3.10;;;;;;;27.65;33.77;96569.81;5041559;28;20430;-69
2021/06/16 06:40:20;;;;;;;4.20;2.53;;;;;;;27.86;33.77;96567.00;5051174;28;20600;-70
2021/06/16 06:42:46;;;;;;;3.30;3.00;;;;;;;27.92;33.22;96565.88;5051201;28;20190;-70
2021/06/16 06:45:11;;;;;;;3.53;2.50;;;;;;;28.09;32.93;96562.03;5051082;28;20689;-69
2021/06/16 06:47:37;;;;;;;7.23;3.00;;;;;;;28.17;32.87;96553.34;5051468;28;20198;-69
2021/06/16 06:50:11;;;;;;;3.80;2.60;;;;;;;28.36;32.25;96554.25;5051195;28;20202;-70
2021/06/16 06:52:37;;;;;;;6.17;3.47;;;;;;;28.59;31.80;96557.28;5049899;28;20197;-69
2021/06/16 06:55:03;;;;;;;3.03;2.50;;;;;;;28.80;31.39;96559.78;5047655;28;20473;-69
2021/06/16 06:57:29;;;;;;;11.57;2.93;;;;;;;28.73;31.15;96548.56;5051190;28;20209;-68
2021/06/16 06:59:54;;;;;;;5.10;3.00;;;;;;;28.66;31.92;96549.66;5041460;28;20233;-71
2021/06/16 07:02:20;;;;;;;5.77;2.83;;;;;;;28.62;31.72;96547.81;5050970;28;20183;-69
2021/06/16 07:04:45;;;;;;;5.23;2.70;;;;;;;29.14;30.99;96539.97;5042754;28;20179;-69
2021/06/16 07:07:11;;;;;;;4.23;2.90;;;;;;;29.19;30.80;96539.91;5043138;28;20207;-69
2021/06/16 07:09:37;;;;;;;3.53;2.63;;;;;;;29.48;31.27;96539.03;5046289;28;20186;-69
2021/06/16 07:12:03;;;;;;;13.37;3.20;;;;;;;29.50;31.43;96544.91;5041079;28;20241;-69
2021/06/16 07:14:28;;;;;;;4.70;3.50;;;;;;;29.19;31.43;96541.78;5050069;28;20457;-70
2021/06/16 07:16:54;;;;;;;6.03;3.00;;;;;;;29.25;32.16;96544.13;5051570;28;20207;-69
2021/06/16 07:19:19;;;;;;;7.30;3.80;;;;;;;29.34;31.71;96540.84;5043727;28;20221;-71
2021/06/16 07:21:45;;;;;;;10.30;3.03;;;;;;;29.69;31.37;96546.84;5048556;28;20191;-69
2021/06/16 07:24:11;;;;;;;7.40;2.70;;;;;;;29.42;31.24;96540.97;5051215;28;20183;-69
2021/06/16 07:26:37;;;;;;;4.50;2.73;;;;;;;29.44;31.48;96543.41;5054047;28;20690;-69
2021/06/16 07:29:03;;;;;;;5.20;2.93;;;;;;;29.87;30.88;96542.50;5046871;28;20190;-70
2021/06/16 07:31:28;;;;;;;2.93;2.73;;;;;;;30.31;30.40;96535.88;5053427;28;20428;-69
2021/06/16 07:33:54;;;;;;;3.03;2.73;;;;;;;30.24;30.51;96529.28;5052944;28;20206;-68
2021/06/16 07:36:20;;;;;;;4.03;2.30;;;;;;;30.17;30.67;96529.66;5054756;28;20693;-70
2021/06/16 07:38:46;;;;;;;12.97;3.53;;;;;;;30.50;29.48;96533.09;5046483;28;20242;-69
2021/06/16 07:41:11;;;;;;;2.90;2.60;;;;;;;30.71;29.08;96531.94;5054642;28;20198;-69
2021/06/16 07:43:37;;;;;;;6.60;2.80;;;;;;;30.58;28.89;96534.34;5054493;28;20547;-70
2021/06/16 07:46:02;;;;;;;10.00;2.50;;;;;;;30.80;28.69;96536.38;5054355;28;20225;-68
2021/06/16 07:48:28;;;;;;;3.60;2.80;;;;;;;30.63;28.25;96538.84;5053482;28;20231;-69
2021/06/16 07:50:53;;;;;;;3.53;2.67;;;;;;;30.85;27.67;96537.38;5053489;28;20203;-69
2021/06/16 07:53:20;;;;;;;3.30;2.77;;;;;;;30.50;28.06;96532.31;5053807;28;20679;-71
2021/06/16 07:55:46;;;;;;;3.10;2.80;;;;;;;30.82;28.43;96535.28;5054298;28;20217;-69
2021/06/16 07:58:11;;;;;;;10.53;2.90;;;;;;;30.89;28.39;96530.25;5046305;28;20505;-70
2021/06/16 08:00:37;;;;;;;7.10;2.73;;;;;;;31.02;27.82;96532.16;5036935;28;20191;-70
2021/06/16 08:03:04;;;;;;;16.40;2.73;;;;;;;30.93;27.59;96528.56;5054290;28;20612;-69
2021/06/16 08:05:29;;;;;;;3.70;2.57;;;;;;;31.01;27.92;96535.16;5052334;28;20540;-69
2021/06/16 08:07:55;;;;;;;2.93;2.53;;;;;;;31.04;27.29;96535.34;5044951;28;20509;-68
2021/06/16 08:10:21;;;;;;;4.93;2.63;;;;;;;31.33;26.71;96531.56;5053723;28;20191;-69
2021/06/16 08:12:46;;;;;;;8.23;2.97;;;;;;;31.36;26.72;96527.44;5053437;28;20182;-68
2021/06/16 08:15:13;;;;;;;6.47;2.73;;;;;;;30.70;27.86;96533.88;5053470;28;20535;-69
2021/06/16 08:17:39;;;;;;;3.40;2.80;;;;;;;30.51;27.89;96533.91;5053739;28;20199;-69
2021/06/16 08:20:06;;;;;;;6.70;2.90;;;;;;;30.99;27.92;96524.66;5053505;28;20903;-68
2021/06/16 08:22:33;;;;;;;3.60;2.43;;;;;;;31.23;27.45;96521.75;5050154;28;20446;-68
2021/06/16 08:25:00;;;;;;;6.10;2.80;;;;;;;31.25;27.54;96518.75;5052496;28;20429;-69
2021/06/16 08:27:26;;;;;;;6.13;3.00;;;;;;;31.50;27.49;96522.00;5043110;28;20954;-68
2021/06/16 08:29:52;;;;;;;5.60;2.87;;;;;;;31.31;28.01;96522.94;5052777;28;20520;-68
2021/06/16 08:32:17;;;;;;;2.97;2.67;;;;;;;31.87;27.11;96517.38;5052885;28;20432;-68
2021/06/16 08:34:43;;;;;;;6.53;3.13;;;;;;;32.09;27.07;96518.47;5044604;28;20202;-67
2021/06/16 08:37:08;;;;;;;4.87;2.27;;;;;;;32.12;27.31;96517.88;5040693;28;20279;-69
2021/06/16 08:39:34;;;;;;;4.87;2.60;;;;;;;32.24;26.96;96514.56;5053159;28;20217;-70
2021/06/16 08:42:00;;;;;;;3.90;2.80;;;;;;;31.95;27.55;96523.94;5053543;28;20199;-68
2021/06/16 08:44:25;;;;;;;5.93;2.87;;;;;;;32.24;26.97;96520.81;5053823;28;20189;-70
2021/06/16 08:46:51;;;;;;;3.17;2.50;;;;;;;32.35;27.37;96510.50;5052067;28;20564;-68
2021/06/16 08:49:17;;;;;;;6.23;2.47;;;;;;;32.73;26.93;96514.69;5051939;28;20179;-68
2021/06/16 08:51:43;;;;;;;2.80;2.60;;;;;;;33.14;26.41;96513.56;5052952;28;20556;-68
2021/06/16 08:54:09;;;;;;;6.07;4.93;;;;;;;33.07;26.51;96514.00;5052492;28;20678;-69
2021/06/16 08:56:35;;;;;;;5.07;3.00;;;;;;;32.95;26.26;96521.16;5053799;28;20214;-69
2021/06/16 08:59:00;;;;;;;10.10;3.30;;;;;;;32.81;27.21;96522.06;5053605;28;20472;-69
2021/06/16 09:01:26;;;;;;;3.87;2.87;;;;;;;32.92;26.46;96511.75;5040538;28;20187;-69
2021/06/16 09:03:52;;;;;;;3.50;2.87;;;;;;;33.40;26.40;96515.50;5044269;28;20232;-69
2021/06/16 09:06:17;;;;;;;4.23;2.90;;;;;;;32.66;27.04;96519.75;5050582;28;20233;-69
2021/06/16 09:09:09;;;;;;;5.17;3.13;;;;;;;33.26;26.08;96520.28;5043196;28;20191;-68
2021/06/16 09:11:44;;;;;;;4.37;2.60;;;;;;;33.24;26.33;96510.53;5050591;28;20669;-68
2021/06/16 09:14:18;;;;;;;5.97;2.80;;;;;;;33.47;25.88;96515.84;5052397;28;20453;-70
2021/06/16 09:16:44;;;;;;;12.50;2.90;;;;;;;33.79;25.45;96512.97;5051826;28;20948;-70
2021/06/16 09:19:22;;;;;;;4.77;3.07;;;;;;;34.12;25.12;96505.13;5053494;28;20442;-69
2021/06/16 09:21:49;;;;;;;3.87;2.70;;;;;;;33.39;26.12;96508.50;5040611;28;20885;-70
2021/06/16 09:24:16;;;;;;;8.40;2.43;;;;;;;33.70;25.22;96504.81;5053620;28;20413;-68
2021/06/16 09:26:43;;;;;;;8.43;3.30;;;;;;;33.51;25.63;96508.69;5050982;28;20981;-69
2021/06/16 09:29:10;;;;;;;5.40;2.90;;;;;;;33.13;25.84;96503.00;5053563;28;20489;-69
2021/06/16 09:31:42;;;;;;;3.50;2.40;;;;;;;33.50;25.66;96507.06;5053332;28;20836;-69
2021/06/16 09:34:11;;;;;;;3.60;2.70;;;;;;;31.89;27.06;96509.72;5052104;28;20507;-69
2021/06/16 09:37:04;;;;;;;8.63;3.03;;;;;;;32.96;26.70;96511.91;5051411;28;20441;-70
2021/06/16 09:39:31;;;;;;;3.90;2.80;;;;;;;33.30;25.45;96500.31;5039949;28;20437;-69
2021/06/16 09:41:56;;;;;;;3.37;2.80;;;;;;;33.57;25.66;96505.78;5054044;28;20425;-68
2021/06/16 09:44:43;;;;;;;4.50;3.10;;;;;;;33.68;25.48;96502.44;5052622;28;20487;-69
2021/06/16 09:47:10;;;;;;;3.83;2.97;;;;;;;34.33;24.48;96503.63;5052884;28;20214;-69
2021/06/16 09:50:00;;;;;;;5.27;2.80;;;;;;;34.77;23.42;96498.84;5054339;28;20834;-69
2021/06/16 09:52:30;;;;;;;3.47;2.47;;;;;;;34.41;24.17;96509.06;5032575;28;20950;-68
2021/06/16 09:54:56;;;;;;;3.60;3.00;;;;;;;34.26;23.49;96509.56;5032768;28;20451;-69
2021/06/16 09:57:21;;;;;;;4.53;2.43;;;;;;;33.68;24.67;96499.72;5053915;28;20651;-69
2021/06/16 09:59:47;;;;;;;7.57;2.60;;;;;;;33.61;25.25;96504.03;5052772;28;20676;-70
2021/06/16 10:02:15;;;;;;;3.30;2.40;;;;;;;34.08;24.13;96504.16;5052098;28;20187;-70
2021/06/16 10:04:44;;;;;;;7.73;2.70;;;;;;;34.45;23.79;96509.22;5000988;28;20509;-70
2021/06/16 10:07:10;;;;;;;3.77;2.23;;;;;;;33.96;24.17;96502.09;5042398;28;20504;-69
2021/06/16 10:09:37;;;;;;;2.80;2.50;;;;;;;34.23;23.83;96502.84;5046208;28;20488;-69
2021/06/16 10:12:03;;;;;;;4.23;2.60;;;;;;;34.37;24.01;96501.84;5052644;28;20210;-69
2021/06/16 10:14:31;;;;;;;4.33;2.27;;;;;;;34.56;23.14;96498.78;5050680;28;20560;-68
2021/06/16 10:16:56;;;;;;;4.47;2.57;;;;;;;34.61;23.62;96496.66;5051849;28;20445;-68
2021/06/16 10:19:22;;;;;;;4.07;2.50;;;;;;;34.65;23.80;96491.41;5049478;28;20829;-69
2021/06/16 10:21:48;;;;;;;5.83;2.63;;;;;;;35.08;23.02;96491.50;5047757;28;20241;-68
2021/06/16 10:24:13;;;;;;;9.43;2.50;;;;;;;34.46;23.10;96486.34;5050334;28;20475;-68
2021/06/16 10:26:39;;;;;;;5.33;2.57;;;;;;;35.21;22.61;96485.00;5051525;28;20237;-67
2021/06/16 10:29:10;;;;;;;4.70;2.30;;;;;;;35.51;23.24;96484.97;5050092;28;20186;-67
2021/06/16 10:31:41;;;;;;;7.27;2.67;;;;;;;35.06;23.44;96484.47;5050509;28;20417;-70
2021/06/16 10:34:08;;;;;;;4.23;2.80;;;;;;;35.35;23.59;96485.53;5043299;28;20467;-69
2021/06/16 10:36:35;;;;;;;6.70;2.70;;;;;;;34.63;24.57;96484.66;5049886;28;20453;-69
2021/06/16 10:39:01;;;;;;;7.43;2.30;;;;;;;34.97;24.27;96483.72;5047532;28;20519;-68
2021/06/16 10:41:45;;;;;;;8.57;2.63;;;;;;;35.11;24.32;96475.28;5034899;28;20496;-69
2021/06/16 10:44:20;;;;;;;3.30;2.70;;;;;;;35.10;24.70;96479.16;5050394;28;20178;-69
2021/06/16 10:46:56;;;;;;;3.73;2.80;;;;;;;35.42;23.65;96478.75;5041150;28;20456;-69
2021/06/16 10:49:40;;;;;;;5.10;3.00;;;;;;;35.58;22.98;96468.88;5050735;28;20428;-68
2021/06/16 10:52:07;;;;;;;4.97;2.43;;;;;;;35.67;22.88;96464.16;5050085;28;20428;-68
2021/06/16 10:54:34;;;;;;;3.73;3.00;;;;;;;35.76;23.44;96464.06;5042222;28;20920;-68
2021/06/16 10:57:05;;;;;;;7.80;2.70;;;;;;;34.79;24.14;96471.28;5050273;28;20449;-70
2021/06/16 10:59:43;;;;;;;7.50;3.30;;;;;;;34.97;24.42;96464.66;5050690;28;20430;-70
2021/06/16 11:02:17;;;;;;;8.07;3.93;;;;;;;35.03;24.26;96462.56;5040899;28;20996;-67
2021/06/16 11:04:43;;;;;;;9.30;3.37;;;;;;;35.29;23.62;96465.06;5050918;28;20440;-68
2021/06/16 11:07:31;;;;;;;3.63;3.30;;;;;;;35.29;23.76;96461.56;5043213;28;20488;-69
2021/06/16 11:10:04;;;;;;;4.70;2.50;;;;;;;35.33;23.38;96466.00;5050932;28;20448;-68
2021/06/16 11:12:31;;;;;;;9.47;2.40;;;;;;;35.32;23.10;96458.97;5033428;28;20436;-69
2021/06/16 11:14:59;;;;;;;3.40;2.60;;;;;;;35.65;23.06;96461.00;5050207;28;20468;-69
2021/06/16 11:17:34;;;;;;;6.43;2.70;;;;;;;35.78;22.50;96452.88;5034071;28;20579;-69
2021/06/16 11:20:06;;;;;;;3.20;2.90;;;;;;;36.05;21.06;96459.66;5047715;28;20567;-70
2021/06/16 11:22:39;;;;;;;7.50;2.40;;;;;;;35.86;22.15;96454.69;5046081;28;20487;-69
2021/06/16 11:25:12;;;;;;;9.43;3.10;;;;;;;35.64;23.31;96445.78;5049968;28;20440;-68
2021/06/16 11:27:53;;;;;;;4.00;2.47;;;;;;;35.64;23.51;96442.25;5050439;28;20539;-68
2021/06/16 11:30:40;;;;;;;4.67;2.53;;;;;;;35.64;23.61;96443.06;5048945;28;20432;-68
2021/06/16 11:33:15;;;;;;;7.30;3.30;;;;;;;36.11;23.47;96438.44;5050221;28;20492;-66